createdAt,value
2023-01-25T00:01:45.110Z,26.30
2023-01-25T00:04:11.741Z,28.10
2023-01-25T00:06:37.990Z,25.30
2023-01-25T00:09:05.017Z,24.53
2023-01-25T00:11:31.246Z,25.33
2023-01-25T00:13:57.558Z,27.30
2023-01-25T00:16:23.894Z,25.27
2023-01-25T00:18:50.221Z,27.33
2023-01-25T00:21:17.857Z,26.80
2023-01-25T00:23:49.423Z,31.90
2023-01-25T00:26:16.009Z,23.40
2023-01-25T00:28:42.268Z,23.93
2023-01-25T00:31:11.196Z,26.77
2023-01-25T00:33:37.387Z,26.17
2023-01-25T00:36:23.643Z,27.67
2023-01-25T00:38:52.924Z,26.83
2023-01-25T00:41:19.183Z,26.60
2023-01-25T00:43:45.399Z,26.53
2023-01-25T00:46:15.430Z,32.70
2023-01-25T00:48:41.683Z,29.23
2023-01-25T00:51:07.956Z,30.33
2023-01-25T00:53:34.465Z,26.20
2023-01-25T00:56:00.716Z,33.47
2023-01-25T00:58:26.961Z,26.33
2023-01-25T01:00:54.056Z,28.13
2023-01-25T01:03:20.535Z,25.40
2023-01-25T01:05:46.771Z,27.93
2023-01-25T01:08:14.849Z,28.03
2023-01-25T01:10:41.198Z,24.47
2023-01-25T01:13:07.579Z,32.00
2023-01-25T01:15:36.854Z,28.97
2023-01-25T01:18:03.223Z,27.97
2023-01-25T01:20:29.522Z,28.80
2023-01-25T01:22:55.824Z,29.70
2023-01-25T01:25:22.097Z,27.93
2023-01-25T01:27:48.305Z,29.87
2023-01-25T01:30:14.627Z,24.70
2023-01-25T01:32:41.022Z,28.70
2023-01-25T01:35:07.707Z,24.43
2023-01-25T01:37:34.117Z,26.57
2023-01-25T01:40:00.363Z,30.37
2023-01-25T01:42:26.752Z,28.23
2023-01-25T01:44:53.794Z,29.97
2023-01-25T01:47:28.766Z,25.83
2023-01-25T01:50:00.138Z,29.53
2023-01-25T01:52:30.818Z,27.30
2023-01-25T01:55:01.328Z,28.27
2023-01-25T01:57:32.049Z,27.67
2023-01-25T02:00:13.363Z,26.63
2023-01-25T02:02:40.249Z,26.23
2023-01-25T02:05:08.856Z,28.90
2023-01-25T02:07:37.244Z,25.70
2023-01-25T02:10:04.416Z,33.60
2023-01-25T02:12:31.450Z,27.03
2023-01-25T02:14:57.761Z,28.43
2023-01-25T02:17:31.921Z,30.70
2023-01-25T02:20:07.566Z,27.53
2023-01-25T02:22:40.751Z,29.73
2023-01-25T02:25:08.827Z,29.63
2023-01-25T02:27:38.577Z,29.47
2023-01-25T02:30:05.116Z,26.83
2023-01-25T02:32:31.964Z,27.93
2023-01-25T02:34:58.201Z,28.63
2023-01-25T02:37:24.467Z,30.07
2023-01-25T02:39:50.981Z,25.13
2023-01-25T02:42:17.216Z,26.80
2023-01-25T02:44:43.560Z,28.70
2023-01-25T02:47:09.857Z,28.07
2023-01-25T02:49:36.747Z,33.17
2023-01-25T02:52:03.941Z,26.30
2023-01-25T02:54:30.330Z,32.30
2023-01-25T02:56:57.153Z,26.17
2023-01-25T02:59:23.564Z,28.07
2023-01-25T03:01:50.090Z,29.13
2023-01-25T03:04:16.359Z,28.20
2023-01-25T03:06:42.606Z,30.07
2023-01-25T03:09:11.466Z,28.77
2023-01-25T03:11:37.747Z,28.60
2023-01-25T03:14:03.950Z,29.67
2023-01-25T03:16:30.571Z,29.23
2023-01-25T03:18:56.941Z,31.50
2023-01-25T03:21:23.749Z,28.57
2023-01-25T03:23:55.188Z,28.33
2023-01-25T03:26:22.233Z,33.27
2023-01-25T03:28:48.486Z,29.10
2023-01-25T03:31:17.077Z,30.10
2023-01-25T03:33:43.438Z,28.90
2023-01-25T03:36:10.123Z,32.00
2023-01-25T03:38:36.747Z,33.47
2023-01-25T03:41:03.924Z,28.70
2023-01-25T03:43:30.235Z,29.77
2023-01-25T03:45:57.809Z,27.47
2023-01-25T03:48:24.598Z,24.67
2023-01-25T03:50:55.408Z,27.67
2023-01-25T03:53:31.058Z,27.67
2023-01-25T03:55:58.646Z,30.40
2023-01-25T03:58:25.106Z,29.30
2023-01-25T04:00:51.845Z,30.13
2023-01-25T04:03:19.618Z,28.70
2023-01-25T04:05:46.179Z,28.20
2023-01-25T04:08:12.521Z,27.27
2023-01-25T04:10:38.743Z,26.83
2023-01-25T04:13:04.959Z,33.90
2023-01-25T04:15:31.177Z,30.87
2023-01-25T04:17:57.783Z,30.40
2023-01-25T04:20:24.329Z,28.40
2023-01-25T04:22:50.648Z,24.97
2023-01-25T04:25:17.014Z,24.87
2023-01-25T04:27:43.266Z,23.37
2023-01-25T04:30:09.758Z,24.20
2023-01-25T04:32:37.617Z,23.73
2023-01-25T04:35:04.064Z,20.70
2023-01-25T04:37:30.281Z,25.00
2023-01-25T04:39:56.495Z,25.97
2023-01-25T04:42:22.753Z,25.93
2023-01-25T04:44:48.973Z,24.00
2023-01-25T04:47:15.206Z,24.93
2023-01-25T04:49:41.746Z,22.77
2023-01-25T04:52:08.037Z,22.03
2023-01-25T04:54:34.235Z,23.33
2023-01-25T04:57:00.482Z,22.27
2023-01-25T04:59:26.729Z,23.20
2023-01-25T05:01:53.022Z,24.23
2023-01-25T05:04:19.312Z,19.27
2023-01-25T05:06:45.555Z,22.80
2023-01-25T05:09:11.841Z,20.63
2023-01-25T05:11:38.073Z,23.17
2023-01-25T05:14:04.289Z,22.63
2023-01-25T05:16:30.552Z,17.60
2023-01-25T05:18:56.791Z,19.93
2023-01-25T05:21:44.596Z,19.87
2023-01-25T05:24:11.221Z,18.47
2023-01-25T05:26:56.106Z,18.53
2023-01-25T05:29:22.313Z,18.10
2023-01-25T05:31:48.598Z,20.13
2023-01-25T05:34:14.874Z,21.70
2023-01-25T05:36:41.118Z,19.00
2023-01-25T05:39:08.614Z,20.83
2023-01-25T05:41:34.841Z,19.33
2023-01-25T05:44:01.169Z,19.00
2023-01-25T05:46:27.680Z,19.30
2023-01-25T05:48:54.036Z,17.93
2023-01-25T05:51:20.266Z,17.60
2023-01-25T05:53:46.554Z,16.87
2023-01-25T05:56:12.838Z,14.10
2023-01-25T05:58:39.097Z,16.13
2023-01-25T06:01:06.647Z,16.13
2023-01-25T06:03:33.379Z,16.53
2023-01-25T06:06:02.307Z,16.80
2023-01-25T06:08:29.363Z,18.73
2023-01-25T06:10:55.743Z,17.87
2023-01-25T06:13:22.328Z,21.23
2023-01-25T06:15:52.591Z,19.37
2023-01-25T06:18:18.958Z,20.73
2023-01-25T06:20:45.187Z,19.07
2023-01-25T06:23:11.549Z,22.60
2023-01-25T06:25:37.765Z,20.77
2023-01-25T06:28:04.056Z,22.43
2023-01-25T06:30:30.324Z,24.03
2023-01-25T06:32:59.703Z,22.13
2023-01-25T06:35:26.138Z,23.03
2023-01-25T06:37:55.094Z,22.30
2023-01-25T06:40:21.367Z,25.83
2023-01-25T06:42:47.585Z,21.23
2023-01-25T06:45:13.838Z,21.67
2023-01-25T06:47:40.290Z,23.97
2023-01-25T06:50:06.997Z,21.23
2023-01-25T06:52:36.421Z,22.87
2023-01-25T06:55:03.474Z,21.97
2023-01-25T06:57:29.763Z,22.37
2023-01-25T06:59:56.025Z,24.80
2023-01-25T07:02:22.336Z,19.80
2023-01-25T07:04:48.605Z,22.83
2023-01-25T07:07:14.887Z,21.70
2023-01-25T07:09:41.114Z,24.00
2023-01-25T07:12:07.370Z,21.40
2023-01-25T07:14:33.644Z,21.73
2023-01-25T07:17:01.611Z,20.43
2023-01-25T07:19:29.117Z,20.33
2023-01-25T07:21:55.377Z,20.80
2023-01-25T07:24:21.650Z,21.17
2023-01-25T07:26:49.265Z,21.60
2023-01-25T07:29:16.087Z,20.27
2023-01-25T07:31:42.387Z,21.83
2023-01-25T07:34:09.825Z,21.77
2023-01-25T07:36:36.158Z,22.43
2023-01-25T07:39:02.418Z,24.00
2023-01-25T07:41:28.684Z,24.03
2023-01-25T07:43:55.048Z,25.00
2023-01-25T07:46:21.342Z,22.13
2023-01-25T07:48:48.672Z,24.87
2023-01-25T07:51:26.621Z,23.00
2023-01-25T07:54:00.389Z,24.67
2023-01-25T07:56:27.752Z,22.47
2023-01-25T07:58:54.974Z,20.77
2023-01-25T08:01:22.355Z,26.27
2023-01-25T08:03:49.321Z,23.97
2023-01-25T08:06:15.986Z,20.90
2023-01-25T08:08:46.588Z,23.77
2023-01-25T08:11:17.075Z,20.63
2023-01-25T08:13:46.567Z,18.67
2023-01-25T08:16:16.861Z,22.13
2023-01-25T08:18:43.153Z,20.40
2023-01-25T08:21:09.895Z,22.27
2023-01-25T08:23:36.351Z,22.50
2023-01-25T08:26:03.833Z,25.20
2023-01-25T08:28:30.218Z,22.03
2023-01-25T08:31:04.396Z,20.33
2023-01-25T08:33:30.616Z,26.03
2023-01-25T08:35:57.243Z,30.27
2023-01-25T08:38:23.704Z,26.67
2023-01-25T08:40:49.965Z,28.03
2023-01-25T08:43:16.206Z,25.00
2023-01-25T08:45:42.504Z,25.40
2023-01-25T08:48:08.799Z,25.13
2023-01-25T08:50:35.016Z,28.13
2023-01-25T08:53:01.247Z,24.60
2023-01-25T08:55:27.465Z,25.20
2023-01-25T08:57:55.748Z,25.60
2023-01-25T09:00:23.226Z,29.40
2023-01-25T09:02:49.454Z,27.07
2023-01-25T09:05:15.683Z,27.77
2023-01-25T09:07:41.909Z,26.13
2023-01-25T09:10:09.207Z,27.47
2023-01-25T09:12:35.979Z,22.63
2023-01-25T09:15:03.004Z,21.60
2023-01-25T09:17:29.267Z,22.70
2023-01-25T09:19:55.616Z,23.53
2023-01-25T09:22:21.979Z,22.03
2023-01-25T09:24:52.195Z,25.53
2023-01-25T09:27:18.573Z,23.13
2023-01-25T09:29:59.979Z,23.70
2023-01-25T09:32:27.655Z,25.60
2023-01-25T09:34:53.953Z,27.03
2023-01-25T09:37:20.295Z,24.73
2023-01-25T09:39:46.531Z,28.20
2023-01-25T09:42:15.755Z,25.23
2023-01-25T09:45:07.993Z,27.03
2023-01-25T09:47:53.229Z,27.73
2023-01-25T09:50:22.443Z,25.47
2023-01-25T09:52:57.165Z,23.53
2023-01-25T09:55:25.863Z,23.87
2023-01-25T09:57:54.248Z,26.17
2023-01-25T10:00:23.562Z,27.47
2023-01-25T10:02:53.690Z,23.87
2023-01-25T10:05:22.030Z,28.33
2023-01-25T10:07:53.374Z,28.10
2023-01-25T10:10:39.721Z,26.30
2023-01-25T10:13:13.260Z,27.27
2023-01-25T10:15:41.081Z,27.63
2023-01-25T10:18:29.983Z,29.50
2023-01-25T10:20:57.968Z,28.23
2023-01-25T10:23:30.064Z,27.67
2023-01-25T10:25:56.255Z,33.00
2023-01-25T10:28:28.471Z,30.03
2023-01-25T10:31:04.821Z,26.47
2023-01-25T10:33:35.144Z,30.00
2023-01-25T10:36:04.510Z,33.67
2023-01-25T10:38:33.965Z,35.40
2023-01-25T10:41:02.233Z,31.17
2023-01-25T10:43:28.612Z,36.13
2023-01-25T10:45:54.832Z,38.40
2023-01-25T10:48:23.048Z,35.07
2023-01-25T10:50:51.354Z,35.40
2023-01-25T10:53:37.094Z,31.43
2023-01-25T10:56:09.275Z,32.60
2023-01-25T10:58:39.985Z,35.37
2023-01-25T11:01:08.173Z,32.43
2023-01-25T11:03:36.266Z,34.47
2023-01-25T11:06:04.256Z,33.80
2023-01-25T11:08:30.518Z,34.53
2023-01-25T11:10:57.103Z,36.60
2023-01-25T11:13:26.102Z,37.87
2023-01-25T11:15:52.701Z,35.77
2023-01-25T11:18:23.529Z,34.23
2023-01-25T11:21:03.482Z,34.37
2023-01-25T11:23:32.035Z,34.13
2023-01-25T11:26:17.822Z,35.20
2023-01-25T11:28:45.044Z,33.80
2023-01-25T11:31:13.172Z,39.30
2023-01-25T11:33:40.213Z,32.87
2023-01-25T11:36:11.004Z,31.83
2023-01-25T11:38:39.356Z,37.27
2023-01-25T11:41:05.621Z,37.20
2023-01-25T11:43:50.580Z,34.93
2023-01-25T11:46:21.440Z,41.03
2023-01-25T11:48:52.818Z,38.50
2023-01-25T11:51:29.145Z,38.33
2023-01-25T11:54:17.297Z,36.63
2023-01-25T11:56:43.523Z,36.30
2023-01-25T11:59:24.882Z,36.50
2023-01-25T12:02:10.824Z,35.80
2023-01-25T12:04:52.212Z,38.53
2023-01-25T12:07:34.441Z,37.50
2023-01-25T12:10:04.442Z,35.87
2023-01-25T12:12:35.696Z,37.57
2023-01-25T12:15:20.606Z,33.67
2023-01-25T12:17:46.803Z,36.63
2023-01-25T12:20:31.386Z,38.60
2023-01-25T12:22:57.732Z,41.50
2023-01-25T12:25:47.103Z,40.07
2023-01-25T12:28:21.309Z,36.17
2023-01-25T12:30:57.016Z,39.40
2023-01-25T12:33:33.886Z,36.03
2023-01-25T12:36:08.968Z,39.50
2023-01-25T12:38:38.827Z,30.63
2023-01-25T12:41:18.803Z,34.73
2023-01-25T12:43:48.110Z,35.90
2023-01-25T12:46:17.778Z,39.93
2023-01-25T12:48:47.546Z,36.63
2023-01-25T12:51:15.067Z,32.40
2023-01-25T12:53:47.251Z,39.77
2023-01-25T12:56:26.315Z,34.47
2023-01-25T12:58:57.020Z,38.53
2023-01-25T13:01:26.376Z,34.53
2023-01-25T13:04:03.843Z,39.60
2023-01-25T13:06:45.267Z,39.07
2023-01-25T13:09:23.455Z,33.43
2023-01-25T13:11:49.971Z,33.03
2023-01-25T13:14:16.178Z,36.07
2023-01-25T13:16:43.799Z,35.53
2023-01-25T13:19:28.617Z,38.77
2023-01-25T13:21:58.147Z,32.73
2023-01-25T13:24:28.246Z,32.00
2023-01-25T13:26:54.497Z,34.23
2023-01-25T13:29:35.995Z,32.73
2023-01-25T13:32:02.967Z,30.00
2023-01-25T13:34:39.187Z,30.97
2023-01-25T13:37:19.034Z,32.43
2023-01-25T13:39:48.256Z,35.40
2023-01-25T13:42:20.946Z,43.30
2023-01-25T13:44:50.729Z,33.53
2023-01-25T13:47:19.902Z,35.60
2023-01-25T13:49:49.193Z,45.33
2023-01-25T13:52:18.568Z,33.93
2023-01-25T13:54:46.093Z,33.10
2023-01-25T13:57:14.371Z,33.37
2023-01-25T13:59:40.749Z,32.57
2023-01-25T14:02:20.452Z,30.47
2023-01-25T14:04:47.701Z,29.77
2023-01-25T14:07:18.552Z,29.83
2023-01-25T14:09:44.994Z,30.87
2023-01-25T14:12:11.671Z,25.57
2023-01-25T14:14:38.266Z,27.13
2023-01-25T14:17:16.801Z,30.13
2023-01-25T14:19:44.564Z,31.87
2023-01-25T14:22:19.964Z,29.33
2023-01-25T14:24:46.593Z,31.57
2023-01-25T14:27:13.980Z,34.43
2023-01-25T14:29:40.451Z,31.27
2023-01-25T14:32:06.793Z,32.90
2023-01-25T14:34:33.086Z,34.40
2023-01-25T14:37:15.795Z,31.63
2023-01-25T14:39:42.053Z,34.00
2023-01-25T14:42:08.419Z,31.73
2023-01-25T14:44:34.728Z,32.70
2023-01-25T14:47:22.063Z,31.87
2023-01-25T14:49:48.303Z,29.57
2023-01-25T14:52:16.933Z,31.70
2023-01-25T14:55:01.357Z,30.17
2023-01-25T14:57:33.512Z,31.90
2023-01-25T15:00:01.286Z,28.77
2023-01-25T15:02:38.783Z,29.90
2023-01-25T15:05:15.088Z,27.50
2023-01-25T15:07:43.699Z,26.37
2023-01-25T15:10:19.229Z,26.80
2023-01-25T15:12:58.493Z,26.93
2023-01-25T15:15:31.784Z,32.00
2023-01-25T15:17:58.273Z,26.20
2023-01-25T15:20:35.194Z,29.07
2023-01-25T15:23:16.858Z,30.23
2023-01-25T15:25:53.678Z,31.07
2023-01-25T15:28:20.098Z,28.13
2023-01-25T15:30:46.437Z,29.57
2023-01-25T15:33:20.742Z,30.90
2023-01-25T15:35:47.331Z,30.97
2023-01-25T15:38:14.515Z,28.00
2023-01-25T15:40:40.958Z,31.47
2023-01-25T15:43:09.841Z,28.13
2023-01-25T15:45:36.198Z,29.03
2023-01-25T15:48:02.422Z,29.20
2023-01-25T15:50:29.633Z,27.87
2023-01-25T15:52:56.155Z,31.00
2023-01-25T15:55:23.677Z,31.10
2023-01-25T15:57:50.088Z,32.90
2023-01-25T16:00:20.615Z,33.83
2023-01-25T16:02:46.998Z,30.00
2023-01-25T16:05:13.253Z,26.87
2023-01-25T16:07:40.973Z,28.90
2023-01-25T16:10:17.914Z,31.17
2023-01-25T16:12:45.481Z,26.27
2023-01-25T16:15:11.751Z,26.77
2023-01-25T16:17:38.074Z,31.30
2023-01-25T16:20:04.608Z,32.53
2023-01-25T16:22:30.927Z,25.30
2023-01-25T16:24:57.218Z,31.63
2023-01-25T16:27:25.646Z,38.67
2023-01-25T16:29:52.444Z,32.83
2023-01-25T16:32:18.785Z,28.53
2023-01-25T16:34:45.065Z,32.17
2023-01-25T16:37:14.537Z,35.10
2023-01-25T16:39:41.183Z,37.83
2023-01-25T16:42:09.132Z,32.40
2023-01-25T16:44:35.353Z,29.07
2023-01-25T16:47:01.917Z,27.40
2023-01-25T16:49:29.872Z,26.80
2023-01-25T16:51:59.973Z,27.07
2023-01-25T16:54:26.303Z,25.30
2023-01-25T16:56:53.130Z,27.23
2023-01-25T16:59:19.792Z,21.90
2023-01-25T17:01:46.302Z,21.63
2023-01-25T17:04:12.787Z,23.93
2023-01-25T17:06:40.723Z,25.03
2023-01-25T17:09:20.882Z,23.07
2023-01-25T17:11:48.578Z,23.90
2023-01-25T17:14:16.430Z,27.57
2023-01-25T17:16:42.699Z,27.40
2023-01-25T17:19:12.861Z,25.20
2023-01-25T17:21:39.176Z,29.13
2023-01-25T17:24:05.659Z,23.97
2023-01-25T17:26:32.557Z,26.57
2023-01-25T17:29:01.732Z,25.40
2023-01-25T17:31:32.165Z,26.80
2023-01-25T17:34:00.566Z,27.17
2023-01-25T17:36:26.854Z,27.50
2023-01-25T17:38:53.958Z,28.70
2023-01-25T17:41:20.487Z,32.20
2023-01-25T17:43:52.932Z,29.10
2023-01-25T17:46:25.385Z,28.80
2023-01-25T17:48:55.023Z,28.83
2023-01-25T17:51:22.882Z,29.40
2023-01-25T17:53:50.885Z,29.37
2023-01-25T17:56:18.997Z,27.17
2023-01-25T17:58:45.688Z,26.97
2023-01-25T18:01:14.269Z,28.43
2023-01-25T18:03:41.146Z,28.20
2023-01-25T18:06:10.339Z,28.47
2023-01-25T18:08:37.584Z,31.63
2023-01-25T18:11:06.478Z,29.27
2023-01-25T18:13:32.722Z,31.50
2023-01-25T18:16:00.278Z,29.00
2023-01-25T18:18:28.017Z,28.23
2023-01-25T18:21:01.889Z,26.37
2023-01-25T18:23:28.544Z,28.63
2023-01-25T18:25:54.817Z,31.40
2023-01-25T18:28:21.096Z,31.33
2023-01-25T18:30:58.202Z,26.43
2023-01-25T18:33:24.492Z,26.97
2023-01-25T18:35:52.504Z,26.43
2023-01-25T18:38:18.866Z,27.63
2023-01-25T18:40:45.667Z,26.40
2023-01-25T18:43:13.404Z,29.37
2023-01-25T18:45:42.932Z,30.67
2023-01-25T18:48:13.065Z,26.67
2023-01-25T18:50:39.925Z,26.90
2023-01-25T18:53:07.141Z,28.73
2023-01-25T18:55:33.384Z,26.63
2023-01-25T18:58:04.018Z,30.00
2023-01-25T19:00:33.898Z,28.20
2023-01-25T19:03:00.724Z,31.17
2023-01-25T19:05:29.797Z,26.33
2023-01-25T19:07:56.040Z,27.10
2023-01-25T19:10:22.271Z,22.97
2023-01-25T19:12:48.496Z,28.47
2023-01-25T19:15:14.851Z,26.03
2023-01-25T19:17:42.245Z,25.23
2023-01-25T19:20:08.994Z,23.43
2023-01-25T19:22:35.321Z,25.33
2023-01-25T19:25:01.588Z,28.10
2023-01-25T19:27:29.343Z,21.33
2023-01-25T19:29:55.556Z,26.07
2023-01-25T19:32:21.793Z,23.73
2023-01-25T19:34:48.041Z,25.00
2023-01-25T19:37:15.088Z,24.13
2023-01-25T19:39:43.631Z,23.93
2023-01-25T19:42:09.921Z,24.40
2023-01-25T19:44:36.138Z,25.67
2023-01-25T19:47:03.124Z,23.37
2023-01-25T19:49:29.394Z,26.20
2023-01-25T19:51:55.716Z,24.03
2023-01-25T19:54:22.987Z,23.00
2023-01-25T19:56:49.632Z,23.47
2023-01-25T19:59:20.200Z,26.33
2023-01-25T20:01:46.827Z,26.90
2023-01-25T20:04:14.094Z,25.70
2023-01-25T20:06:40.773Z,22.00
2023-01-25T20:09:07.012Z,21.43
2023-01-25T20:11:33.510Z,18.97
2023-01-25T20:14:01.529Z,22.23
2023-01-25T20:16:28.464Z,20.83
2023-01-25T20:18:56.108Z,20.40
2023-01-25T20:21:23.543Z,20.83
2023-01-25T20:23:50.785Z,21.40
2023-01-25T20:26:18.310Z,22.87
2023-01-25T20:28:45.998Z,23.87
2023-01-25T20:31:20.050Z,20.83
2023-01-25T20:33:46.521Z,21.70
2023-01-25T20:36:12.748Z,21.47
2023-01-25T20:38:38.987Z,22.17
2023-01-25T20:41:06.300Z,21.47
2023-01-25T20:43:32.966Z,21.60
2023-01-25T20:45:59.987Z,24.60
2023-01-25T20:48:26.925Z,21.30
2023-01-25T20:50:53.187Z,23.83
2023-01-25T20:53:24.632Z,17.93
2023-01-25T20:55:54.665Z,24.97
2023-01-25T20:58:20.952Z,23.73
2023-01-25T21:00:47.219Z,21.10
2023-01-25T21:03:13.463Z,19.90
2023-01-25T21:05:39.680Z,24.10
2023-01-25T21:08:05.949Z,22.40
2023-01-25T21:10:32.168Z,22.57
2023-01-25T21:12:58.395Z,23.13
2023-01-25T21:15:25.707Z,21.30
2023-01-25T21:17:52.489Z,22.87
2023-01-25T21:20:18.724Z,21.60
2023-01-25T21:22:45.104Z,20.67
2023-01-25T21:25:12.632Z,23.77
2023-01-25T21:27:38.844Z,23.47
2023-01-25T21:30:05.277Z,23.60
2023-01-25T21:32:31.501Z,22.90
2023-01-25T21:34:57.739Z,21.50
2023-01-25T21:37:23.966Z,25.90
2023-01-25T21:39:51.445Z,23.53
2023-01-25T21:42:17.686Z,24.13
2023-01-25T21:45:02.612Z,25.73
2023-01-25T21:47:31.160Z,23.30
2023-01-25T21:50:16.703Z,24.77
2023-01-25T21:52:42.995Z,22.70
2023-01-25T21:55:10.855Z,22.07
2023-01-25T21:57:40.847Z,20.57
2023-01-25T22:00:07.338Z,22.43
2023-01-25T22:02:33.610Z,24.00
2023-01-25T22:05:00.322Z,22.60
2023-01-25T22:07:26.581Z,20.93
2023-01-25T22:09:52.802Z,19.73
2023-01-25T22:12:19.109Z,22.87
2023-01-25T22:14:45.394Z,21.47
2023-01-25T22:17:11.627Z,22.20
2023-01-25T22:19:37.881Z,22.70
2023-01-25T22:22:04.173Z,18.10
2023-01-25T22:24:30.559Z,20.00
2023-01-25T22:27:02.660Z,21.70
2023-01-25T22:29:29.855Z,18.57
2023-01-25T22:31:56.429Z,21.63
2023-01-25T22:34:22.725Z,22.67
2023-01-25T22:36:48.957Z,20.60
2023-01-25T22:39:15.485Z,21.57
2023-01-25T22:41:41.835Z,19.60
2023-01-25T22:44:08.130Z,19.67
2023-01-25T22:46:34.422Z,21.80
2023-01-25T22:49:02.360Z,18.33
2023-01-25T22:51:29.929Z,17.13
2023-01-25T22:53:57.097Z,22.07
2023-01-25T22:56:24.640Z,17.93
2023-01-25T22:58:51.013Z,17.37
2023-01-25T23:01:21.647Z,21.80
2023-01-25T23:03:48.628Z,19.67
2023-01-25T23:06:15.997Z,17.13
2023-01-25T23:08:42.638Z,18.13
2023-01-25T23:11:11.219Z,17.03
2023-01-25T23:13:37.538Z,20.30
2023-01-25T23:16:04.787Z,19.17
2023-01-25T23:18:49.826Z,16.97
2023-01-25T23:21:20.401Z,20.43
2023-01-25T23:23:46.758Z,18.40
2023-01-25T23:26:13.351Z,20.20
2023-01-25T23:28:39.564Z,19.73
2023-01-25T23:31:21.344Z,19.00
2023-01-25T23:33:48.878Z,19.77
2023-01-25T23:36:18.431Z,17.30
2023-01-25T23:38:45.984Z,18.33
2023-01-25T23:41:12.931Z,19.67
2023-01-25T23:43:39.568Z,16.23
2023-01-25T23:46:06.452Z,19.87
2023-01-25T23:48:32.774Z,16.60
2023-01-25T23:50:59.079Z,18.90
2023-01-25T23:53:26.362Z,19.47
2023-01-25T23:55:53.441Z,23.23
2023-01-25T23:58:19.996Z,20.63
